Watertown, SD (57201)

12:20 PM CDT on July 29, 2015 (GMT -0500)
IEM | | Change Station
CLOSE
Current Station
Personal Weather Station
Location: Watertown, SD
Elevation: 1787 ft
Nearby Weather Stations
Active Advisory: High Wind Advisory

Elev 1787 ft 44.91 °N, 97.10 °W | Updated 23 minutes ago

Clear
Clear
75 °F
Feels Like 78 °F
N
10
Wind Variable Wind from WNW
Gusts 0.0 mph

Today
High -- | Low -- °F
--% Chance of Precip.
Yesterday
High -- | Low -- °F
Precip. -- in
6:10 AM 8:58 PM
Waxing Gibbous, 96% visible
Pressure 30.03 in
Visibility 10.0 miles
Clouds Clear
Heat Index 78 °F
Dew Point 54 °F
Humidity 47%
Rainfall in
Snow Depth Not available.
UV 9 out of 12
Pollen 6.70 out of 12
Air Quality Not available.
Flu Activity Not available.
METAR KATY 291653Z AUTO 27019G26KT 10SM CLR 24/11 A3005 RMK AO2 PK WND 27026/1651 SLP169 T02440111

More Conditions Fewer Conditions

Pressure 30.03 in
Visibility 10.0 miles
Clouds Clear
Heat Index 78 °F
Dew Point 54 °F
Humidity 47%
Rainfall in
Snow Depth Not available.
UV 9 out of 12
Pollen 6.70 out of 12
Air Quality Not available.
Flu Activity Not available.
METAR KATY 291653Z AUTO 27019G26KT 10SM CLR 24/11 A3005 RMK AO2 PK WND 27026/1651 SLP169 T02440111

More Conditions Fewer Conditions

10-Day Weather Forecast

×

Almanac

Astronomy

Jul. 29, 2015 Rise Set
Actual Time
Civil Twilight
Nautical Twilight
Astronomical Twilight
Moon
Length of Visible Light
Length of Day
Tomorrow will be .
, % of the Moon is Illuminated

Today's Extremes

State Highs State Lows

Community

WunderPhotos

Upload Photos

1,842,133 photos uploaded!

WunderBlogs® & News

Nearby

Air Quality

  Air Quality AQ Index Pollutant
Not available.

Snow Depth

Station Depth Elevation

Earthquake Activity

City Distance Mag. Time & Date
Minimum magnitude displayed is 2.5.

Coastal Water Temperatures

Place Temperature

Stations

Nearby Weather Stations

Station Location Temp. Windchill Dew Point Humidity Wind Precip. Elev Updated Type
                   
High Wind Advisory
Statement as of 11:25 AM CDT on July 29, 2015

... Wind Advisory is cancelled...

The National Weather Service in Aberdeen has cancelled the Wind
Advisory.

Sustained winds of 20 to 30 mph are still possible through this
afternoon... however advisory level conditions are no longer
anticipated.

SD